Aérodrome :
LOGIN :

S'inscrire | Disclaimer

   EN    FR    IT 

 










Légende :    VFR   VFR Marginal   IFR   IFR Intensif   IFR Très Intensif
Visi : 
Plafond : 
>= 8 km
>= 3000ft
5 à 8 km
1000 à 3000 ft
1500m à 5 km
500 à 1000 ft
800 à 1500m
200 à 500 ft
< 800m
< 200 ft
Symboles :   Orages  Brouillard  Fortes neiges  Fortes précipitations  Vent > 20 kt
SIGMETs :   Divers  Orages  Givrage  Turbulence  Onde Orograph.  Cendres Volcan.






- Altitude de l'aérodrome : 124 ft
- Code IATA : NHT


EGWU - RAF Northolt

DERNIER METAR :
  • 141650Z 28003KT 7000 HZ BKN009 OVC013 19/17 Q1014 TEMPO 9999 NSW RMK GRN TEMPO GRN

METARs EXPIRÉS :
  • 141550Z 33004KT 7000 HZ BKN008 OVC012 19/17 Q1013 TEMPO 9999 NSW RMK GRN TEMPO GRN
  • 141450Z 04006KT 7000 -RA BKN008 OVC012 18/17 Q1014 TEMPO 9999 NSW RMK GRN TEMPO GRN

TAF TAF EGWU
Valide du 14 à 18h jusqu'au 15 à 12h UTC


141637Z 1418/1512 01005KT 9999 SCT008 BKN012
TEMPO 1418/1422 6000 -RA
PROB30
TEMPO 1418/1512 VRB15G25KT 3000 +TSRA BKN030CB
PROB40 1422/1509 6000 BR BKN005



MET'MAP, la Météo Aéronautique d'un coup d'oeil ! - Copyright ORBIFLY Décembre 2007 - Disclaimer

ORBIFLY MET'MAP TEAM :

Programmation & Développement : Alexandra Zaïnal
Sur une idée originale de : Baudouin d'Aumeries
Assistance à la programmation : Marc-Olivier Méhu
Soutien technique & logistique : Manuel Goepfert

Contact : metmap@orbifly.com




SOURCES & CREDITS :

   NOAA